createdAt,value
2022-12-09T00:02:11.204Z,1.30
2022-12-09T00:04:38.373Z,0.90
2022-12-09T00:07:05.099Z,1.60
2022-12-09T00:09:31.681Z,0.85
2022-12-09T00:11:58.160Z,0.50
2022-12-09T00:14:24.597Z,1.08
2022-12-09T00:16:51.206Z,0.88
2022-12-09T00:19:17.902Z,1.00
2022-12-09T00:21:44.617Z,0.90
2022-12-09T00:24:12.449Z,0.80
2022-12-09T00:26:39.448Z,0.50
2022-12-09T00:29:06.310Z,0.55
2022-12-09T00:31:34.242Z,0.73
2022-12-09T00:34:02.665Z,1.10
2022-12-09T00:36:29.549Z,0.75
2022-12-09T00:38:56.772Z,0.70
2022-12-09T00:41:23.373Z,0.75
2022-12-09T00:43:50.185Z,0.70
2022-12-09T00:46:17.099Z,0.50
2022-12-09T00:48:45.645Z,0.63
2022-12-09T00:51:14.005Z,0.40
2022-12-09T00:53:40.619Z,1.02
2022-12-09T00:56:07.505Z,0.50
2022-12-09T00:58:33.988Z,0.40
2022-12-09T01:01:00.479Z,0.35
2022-12-09T01:03:27.515Z,0.40
2022-12-09T01:05:54.730Z,0.40
2022-12-09T01:08:21.677Z,0.30
2022-12-09T01:10:48.241Z,0.35
2022-12-09T01:13:15.429Z,0.30
2022-12-09T01:15:42.265Z,0.32
2022-12-09T01:18:09.069Z,0.30
2022-12-09T01:20:35.841Z,0.20
2022-12-09T01:23:02.706Z,0.20
2022-12-09T01:25:29.546Z,0.40
2022-12-09T01:27:56.075Z,0.28
2022-12-09T01:30:22.623Z,0.20
2022-12-09T01:32:49.381Z,0.20
2022-12-09T01:35:16.122Z,0.55
2022-12-09T01:37:42.653Z,0.40
2022-12-09T01:40:12.495Z,0.30
2022-12-09T01:42:39.252Z,0.45
2022-12-09T01:45:20.979Z,0.55
2022-12-09T01:47:49.004Z,1.38
2022-12-09T01:50:16.820Z,1.30
2022-12-09T01:52:43.664Z,0.95
2022-12-09T01:55:10.375Z,0.68
2022-12-09T01:57:37.396Z,0.60
2022-12-09T02:00:05.084Z,0.32
2022-12-09T02:02:33.125Z,0.40
2022-12-09T02:04:59.976Z,0.30
2022-12-09T02:07:27.200Z,0.20
2022-12-09T02:09:53.749Z,0.30
2022-12-09T02:12:30.038Z,0.30
2022-12-09T02:15:02.691Z,0.30
2022-12-09T02:17:36.071Z,0.47
2022-12-09T02:20:15.188Z,0.30
2022-12-09T02:23:05.053Z,0.30
2022-12-09T02:25:43.985Z,0.20
2022-12-09T02:28:16.514Z,0.30
2022-12-09T02:30:55.523Z,0.20
2022-12-09T02:33:22.149Z,0.28
2022-12-09T02:35:50.512Z,0.20
2022-12-09T02:38:20.368Z,0.30
2022-12-09T02:40:50.591Z,0.57
2022-12-09T02:43:19.700Z,0.30
2022-12-09T02:45:47.584Z,0.30
2022-12-09T02:48:15.235Z,0.35
2022-12-09T02:50:43.011Z,0.22
2022-12-09T02:53:11.186Z,0.20
2022-12-09T02:55:39.257Z,0.30
2022-12-09T02:58:05.859Z,0.30
2022-12-09T03:00:32.569Z,0.40
2022-12-09T03:03:01.676Z,0.40
2022-12-09T03:05:28.545Z,0.60
2022-12-09T03:08:14.396Z,0.38
2022-12-09T03:10:49.136Z,0.30
2022-12-09T03:13:22.039Z,0.30
2022-12-09T03:15:53.246Z,0.30
2022-12-09T03:18:20.837Z,0.45
2022-12-09T03:20:49.259Z,0.50
2022-12-09T03:23:16.910Z,0.43
2022-12-09T03:25:46.320Z,0.40
2022-12-09T03:28:24.979Z,0.40
2022-12-09T03:30:53.953Z,1.30
2022-12-09T03:33:22.256Z,1.65
2022-12-09T03:35:54.170Z,1.30
2022-12-09T03:38:22.169Z,1.02
2022-12-09T03:40:51.588Z,0.85
2022-12-09T03:43:26.522Z,0.50
2022-12-09T03:45:57.430Z,0.52
2022-12-09T03:48:24.284Z,0.80
2022-12-09T03:51:02.698Z,0.52
2022-12-09T03:53:34.215Z,0.70
2022-12-09T03:56:06.793Z,0.60
2022-12-09T03:58:34.169Z,0.82
2022-12-09T04:01:01.347Z,0.70
2022-12-09T04:03:28.444Z,0.82
2022-12-09T04:05:55.285Z,1.30
2022-12-09T04:08:22.040Z,1.42
2022-12-09T04:10:48.579Z,1.90
2022-12-09T04:13:15.091Z,1.50
2022-12-09T04:15:41.833Z,1.17
2022-12-09T04:18:08.771Z,1.15
2022-12-09T04:20:35.457Z,1.40
2022-12-09T04:23:01.941Z,1.50
2022-12-09T04:25:28.635Z,1.48
2022-12-09T04:27:55.105Z,2.10
2022-12-09T04:30:21.927Z,1.05
2022-12-09T04:32:48.567Z,1.67
2022-12-09T04:35:15.578Z,1.10
2022-12-09T04:37:42.520Z,1.33
2022-12-09T04:40:09.591Z,1.50
2022-12-09T04:42:36.697Z,1.80
2022-12-09T04:45:03.801Z,1.70
2022-12-09T04:47:30.362Z,2.20
2022-12-09T04:49:57.068Z,1.90
2022-12-09T04:52:24.024Z,1.40
2022-12-09T04:54:51.040Z,1.65
2022-12-09T04:57:18.501Z,2.53
2022-12-09T04:59:45.236Z,1.98
2022-12-09T05:02:12.076Z,2.70
2022-12-09T05:04:38.889Z,3.10
2022-12-09T05:07:06.240Z,2.83
2022-12-09T05:09:33.072Z,2.65
2022-12-09T05:11:59.935Z,3.60
2022-12-09T05:14:26.914Z,2.53
2022-12-09T05:16:53.807Z,2.88
2022-12-09T05:19:20.502Z,1.95
2022-12-09T05:21:47.555Z,1.92
2022-12-09T05:24:14.324Z,3.03
2022-12-09T05:26:41.159Z,3.13
2022-12-09T05:29:08.126Z,2.78
2022-12-09T05:31:34.962Z,1.85
2022-12-09T05:34:01.815Z,2.20
2022-12-09T05:36:29.080Z,3.58
2022-12-09T05:38:56.499Z,2.22
2022-12-09T05:41:23.800Z,2.60
2022-12-09T05:43:51.143Z,2.60
2022-12-09T05:46:18.142Z,3.25
2022-12-09T05:48:45.187Z,4.25
2022-12-09T05:51:14.856Z,2.38
2022-12-09T05:53:42.175Z,4.32
2022-12-09T05:56:09.128Z,3.28
2022-12-09T05:58:35.772Z,3.95
2022-12-09T06:01:07.102Z,3.20
2022-12-09T06:03:34.123Z,3.33
2022-12-09T06:06:05.421Z,2.72
2022-12-09T06:08:32.564Z,2.95
2022-12-09T06:10:59.697Z,2.88
2022-12-09T06:13:27.365Z,2.50
2022-12-09T06:15:54.137Z,2.58
2022-12-09T06:18:21.387Z,1.73
2022-12-09T06:20:48.080Z,2.33
2022-12-09T06:23:14.901Z,2.75
2022-12-09T06:25:44.077Z,2.65
2022-12-09T06:28:10.669Z,2.70
2022-12-09T06:30:37.250Z,3.78
2022-12-09T06:33:17.271Z,3.28
2022-12-09T06:35:50.748Z,2.80
2022-12-09T06:38:17.461Z,2.42
2022-12-09T06:40:44.323Z,2.80
2022-12-09T06:43:11.286Z,1.77
2022-12-09T06:45:38.380Z,3.42
2022-12-09T06:48:05.482Z,3.22
2022-12-09T06:50:32.144Z,2.83
2022-12-09T06:52:59.095Z,2.70
2022-12-09T06:55:26.129Z,1.88
2022-12-09T06:57:52.887Z,2.75
2022-12-09T07:00:19.605Z,2.78
2022-12-09T07:02:46.242Z,2.42
2022-12-09T07:05:13.540Z,2.50
2022-12-09T07:07:40.728Z,1.83
2022-12-09T07:10:08.632Z,1.98
2022-12-09T07:12:35.901Z,2.35
2022-12-09T07:15:02.705Z,2.15
2022-12-09T07:17:29.667Z,2.00
2022-12-09T07:20:00.139Z,2.25
2022-12-09T07:22:30.238Z,1.67
2022-12-09T07:24:57.258Z,2.85
2022-12-09T07:27:23.951Z,2.03
2022-12-09T07:29:50.551Z,2.08
2022-12-09T07:32:17.241Z,2.15
2022-12-09T07:34:44.167Z,2.55
2022-12-09T07:37:10.880Z,1.88
2022-12-09T07:39:37.550Z,2.00
2022-12-09T07:42:04.539Z,2.72
2022-12-09T07:44:31.208Z,1.63
2022-12-09T07:46:58.453Z,1.45
2022-12-09T07:49:25.380Z,2.13
2022-12-09T07:51:52.753Z,1.95
2022-12-09T07:54:20.433Z,2.00
2022-12-09T07:56:47.398Z,2.60
2022-12-09T07:59:15.448Z,2.20
2022-12-09T08:01:42.189Z,1.95
2022-12-09T08:04:09.292Z,1.70
2022-12-09T08:06:36.223Z,1.80
2022-12-09T08:09:05.146Z,2.35
2022-12-09T08:11:33.111Z,1.52
2022-12-09T08:14:05.701Z,2.03
2022-12-09T08:16:34.353Z,1.55
2022-12-09T08:19:01.044Z,1.67
2022-12-09T08:21:28.750Z,2.20
2022-12-09T08:23:56.984Z,1.85
2022-12-09T08:26:24.815Z,2.75
2022-12-09T08:28:51.721Z,3.90
2022-12-09T08:31:23.188Z,2.25
2022-12-09T08:33:50.583Z,2.38
2022-12-09T08:36:21.750Z,1.73
2022-12-09T08:38:48.765Z,1.30
2022-12-09T08:41:17.516Z,1.80
2022-12-09T08:43:44.465Z,1.80
2022-12-09T08:46:11.978Z,1.20
2022-12-09T08:48:39.808Z,1.38
2022-12-09T08:51:07.343Z,2.28
2022-12-09T08:53:34.305Z,1.50
2022-12-09T08:56:08.124Z,1.38
2022-12-09T08:58:34.892Z,1.42
2022-12-09T09:01:01.656Z,1.20
2022-12-09T09:03:28.812Z,1.80
2022-12-09T09:06:07.074Z,2.78
2022-12-09T09:08:36.196Z,2.28
2022-12-09T09:11:10.468Z,2.60
2022-12-09T09:13:39.287Z,1.52
2022-12-09T09:16:09.497Z,1.33
2022-12-09T09:18:36.685Z,1.90
2022-12-09T09:21:03.703Z,2.00
2022-12-09T09:23:30.795Z,1.83
2022-12-09T09:25:57.467Z,1.40
2022-12-09T09:28:30.487Z,1.40
2022-12-09T09:30:58.978Z,0.80
2022-12-09T09:33:25.744Z,0.70
2022-12-09T09:35:56.660Z,0.70
2022-12-09T09:38:23.259Z,0.80
2022-12-09T09:40:50.014Z,0.80
2022-12-09T09:43:18.158Z,1.10
2022-12-09T09:45:45.218Z,0.55
2022-12-09T09:48:15.668Z,1.02
2022-12-09T09:50:53.712Z,1.45
2022-12-09T09:53:20.236Z,1.70
2022-12-09T09:55:50.427Z,1.50
2022-12-09T09:58:20.580Z,1.30
2022-12-09T10:01:01.718Z,1.27
2022-12-09T10:03:31.612Z,0.85
2022-12-09T10:06:17.479Z,1.13
2022-12-09T10:08:56.280Z,0.98
2022-12-09T10:11:26.237Z,0.77
2022-12-09T10:13:53.095Z,1.60
2022-12-09T10:16:23.254Z,1.88
2022-12-09T10:18:50.833Z,1.13
2022-12-09T10:21:18.745Z,1.10
2022-12-09T10:23:46.040Z,1.00
2022-12-09T10:26:20.281Z,1.25
2022-12-09T10:28:49.634Z,1.00
2022-12-09T10:31:16.710Z,1.75
2022-12-09T10:33:43.866Z,1.05
2022-12-09T10:36:35.208Z,1.00
2022-12-09T10:39:02.504Z,1.33
2022-12-09T10:41:51.299Z,1.35
2022-12-09T10:44:19.624Z,1.58
2022-12-09T10:46:47.805Z,1.15
2022-12-09T10:49:19.376Z,1.20
2022-12-09T10:51:50.247Z,1.05
2022-12-09T10:54:21.020Z,1.52
2022-12-09T10:57:08.141Z,1.67
2022-12-09T10:59:35.394Z,1.63
2022-12-09T11:02:08.304Z,1.42
2022-12-09T11:04:37.503Z,1.63
2022-12-09T11:07:05.399Z,1.40
2022-12-09T11:09:36.742Z,1.58
2022-12-09T11:12:07.708Z,1.70
2022-12-09T11:14:41.557Z,1.50
2022-12-09T11:17:11.425Z,1.48
2022-12-09T11:19:39.263Z,1.60
2022-12-09T11:22:39.520Z,1.30
2022-12-09T11:25:13.036Z,1.30
2022-12-09T11:27:41.354Z,1.33
2022-12-09T11:30:16.560Z,1.40
2022-12-09T11:32:56.700Z,1.08
2022-12-09T11:35:30.249Z,1.88
2022-12-09T11:37:58.952Z,0.90
2022-12-09T11:40:26.147Z,1.02
2022-12-09T11:42:53.181Z,1.00
2022-12-09T11:45:19.706Z,1.35
2022-12-09T11:50:34.279Z,1.00
2022-12-09T11:53:08.205Z,1.23
2022-12-09T11:55:36.125Z,0.80
2022-12-09T11:58:04.822Z,1.05
2022-12-09T12:00:35.615Z,1.10
2022-12-09T12:03:10.952Z,1.10
2022-12-09T12:05:40.515Z,0.90
2022-12-09T12:08:10.039Z,1.02
2022-12-09T12:10:39.464Z,1.10
2022-12-09T12:13:10.294Z,1.52
2022-12-09T12:15:55.616Z,1.77
2022-12-09T12:18:22.808Z,1.60
2022-12-09T12:20:56.477Z,1.25
2022-12-09T12:25:52.334Z,1.00
2022-12-09T12:28:18.797Z,1.77
2022-12-09T12:30:51.334Z,1.00
2022-12-09T12:36:27.265Z,1.08
2022-12-09T12:38:53.681Z,0.68
2022-12-09T12:41:26.277Z,1.00
2022-12-09T12:44:20.314Z,0.82
2022-12-09T12:46:46.946Z,0.80
2022-12-09T12:49:30.953Z,0.80
2022-12-09T12:52:26.575Z,1.40
2022-12-09T12:55:19.617Z,1.52
2022-12-09T12:58:01.539Z,0.93
2022-12-09T13:00:33.331Z,0.85
2022-12-09T13:03:09.525Z,0.70
2022-12-09T13:05:37.691Z,1.02
2022-12-09T13:08:07.742Z,0.80
2022-12-09T13:10:42.047Z,0.68
2022-12-09T13:13:16.482Z,0.65
2022-12-09T13:15:47.073Z,0.75
2022-12-09T13:18:13.565Z,0.70
2022-12-09T13:20:50.541Z,0.85
2022-12-09T13:23:17.024Z,0.95
2022-12-09T13:25:50.657Z,0.57
2022-12-09T13:30:54.373Z,0.63
2022-12-09T13:33:26.820Z,2.05
2022-12-09T13:36:06.969Z,2.13
2022-12-09T13:38:33.805Z,2.42
2022-12-09T13:41:00.529Z,3.03
2022-12-09T13:43:31.739Z,2.30
2022-12-09T13:45:59.283Z,2.33
2022-12-09T13:48:29.129Z,1.85
2022-12-09T13:50:57.483Z,2.30
2022-12-09T13:53:34.806Z,1.35
2022-12-09T13:56:05.943Z,1.58
2022-12-09T13:58:38.687Z,1.80
2022-12-09T14:01:05.275Z,1.80
2022-12-09T14:03:37.197Z,1.70
2022-12-09T14:06:06.737Z,1.52
2022-12-09T14:08:37.798Z,1.00
2022-12-09T14:11:33.901Z,0.85
2022-12-09T14:14:26.805Z,1.10
2022-12-09T14:16:53.219Z,0.82
2022-12-09T14:19:25.681Z,0.80
2022-12-09T14:22:17.060Z,1.00
2022-12-09T14:24:56.478Z,0.80
2022-12-09T14:27:29.862Z,0.70
2022-12-09T14:29:57.817Z,0.68
2022-12-09T14:32:36.762Z,0.80
2022-12-09T14:35:16.418Z,0.95
2022-12-09T14:38:04.393Z,0.98
2022-12-09T14:40:43.287Z,1.38
2022-12-09T14:43:09.751Z,1.38
2022-12-09T14:45:42.724Z,1.40
2022-12-09T14:48:10.239Z,1.80
2022-12-09T14:50:38.765Z,1.77
2022-12-09T14:53:08.717Z,1.75
2022-12-09T14:55:38.563Z,1.80
2022-12-09T14:58:05.183Z,1.77
2022-12-09T15:00:36.391Z,2.25
2022-12-09T15:06:11.849Z,2.03
2022-12-09T15:08:40.277Z,2.22
2022-12-09T15:11:18.087Z,2.08
2022-12-09T15:13:46.282Z,1.73
2022-12-09T15:16:15.077Z,1.77
2022-12-09T15:18:42.687Z,1.40
2022-12-09T15:21:09.387Z,1.75
2022-12-09T15:23:38.055Z,1.20
2022-12-09T15:26:05.842Z,1.42
2022-12-09T15:28:33.725Z,1.70
2022-12-09T15:31:01.921Z,1.88
2022-12-09T15:33:29.646Z,2.33
2022-12-09T15:36:05.450Z,2.15
2022-12-09T15:38:38.960Z,2.22
2022-12-09T15:41:26.178Z,1.65
2022-12-09T15:43:55.296Z,1.70
2022-12-09T15:46:22.284Z,2.03
2022-12-09T15:48:50.030Z,1.40
2022-12-09T15:51:18.886Z,1.83
2022-12-09T15:53:53.557Z,1.88
2022-12-09T15:56:25.375Z,1.80
2022-12-09T15:58:53.442Z,1.85
2022-12-09T16:01:28.112Z,2.63
2022-12-09T16:03:55.846Z,3.13
2022-12-09T16:06:27.386Z,2.72
2022-12-09T16:08:53.914Z,3.22
2022-12-09T16:11:36.194Z,2.80
2022-12-09T16:14:02.708Z,3.83
2022-12-09T16:16:38.092Z,4.07
2022-12-09T16:19:04.797Z,4.90
2022-12-09T16:21:35.539Z,4.07
2022-12-09T16:24:07.307Z,3.42
2022-12-09T16:26:38.557Z,2.67
2022-12-09T16:29:14.877Z,2.33
2022-12-09T16:31:41.585Z,3.78
2022-12-09T16:34:19.053Z,5.65
2022-12-09T16:36:53.438Z,4.65
2022-12-09T16:39:23.091Z,3.15
2022-12-09T16:41:52.642Z,3.30
2022-12-09T16:44:20.802Z,4.35
2022-12-09T16:46:47.680Z,2.60
2022-12-09T16:49:14.354Z,3.38
2022-12-09T16:51:40.970Z,2.35
2022-12-09T16:54:17.949Z,3.95
2022-12-09T16:56:46.669Z,3.92
2022-12-09T16:59:13.163Z,2.90
2022-12-09T17:01:41.636Z,3.33
2022-12-09T17:04:17.387Z,3.47
2022-12-09T17:06:44.006Z,2.67
2022-12-09T17:09:11.964Z,2.95
2022-12-09T17:11:38.443Z,4.53
2022-12-09T17:14:05.011Z,3.05
2022-12-09T17:16:31.677Z,2.38
2022-12-09T17:18:58.296Z,14.82
2022-12-09T17:21:24.782Z,22.77
2022-12-09T17:23:51.415Z,30.50
2022-12-09T17:26:18.560Z,12.52
2022-12-09T17:28:45.338Z,4.10
2022-12-09T17:31:13.967Z,3.63
2022-12-09T17:33:40.779Z,3.35
2022-12-09T17:36:07.704Z,2.90
2022-12-09T17:38:34.711Z,3.10
2022-12-09T17:41:05.253Z,9.93
2022-12-09T17:43:32.082Z,18.17
2022-12-09T17:45:59.783Z,12.07
2022-12-09T17:48:26.434Z,7.82
2022-12-09T17:50:52.922Z,5.05
2022-12-09T17:53:19.463Z,2.60
2022-12-09T17:55:45.943Z,3.05
2022-12-09T17:58:12.466Z,2.13
2022-12-09T18:00:40.200Z,2.28
2022-12-09T18:03:07.012Z,2.92
2022-12-09T18:05:37.942Z,2.65
2022-12-09T18:08:05.118Z,2.30
2022-12-09T18:10:31.609Z,2.28
2022-12-09T18:12:58.155Z,2.40
2022-12-09T18:15:24.783Z,1.67
2022-12-09T18:17:51.270Z,1.60
2022-12-09T18:20:17.780Z,1.77
2022-12-09T18:22:44.240Z,1.85
2022-12-09T18:25:10.715Z,2.00
2022-12-09T18:27:37.246Z,2.38
2022-12-09T18:30:03.894Z,2.45
2022-12-09T18:32:35.882Z,2.97
2022-12-09T18:35:02.776Z,2.58
2022-12-09T18:37:30.530Z,2.70
2022-12-09T18:39:57.051Z,3.33
2022-12-09T18:42:23.554Z,3.58
2022-12-09T18:44:50.161Z,2.55
2022-12-09T18:47:16.763Z,1.92
2022-12-09T18:49:43.239Z,2.83
2022-12-09T18:52:09.742Z,1.48
2022-12-09T18:54:36.677Z,1.60
2022-12-09T18:57:03.971Z,1.95
2022-12-09T18:59:31.934Z,2.38
2022-12-09T19:01:58.815Z,1.65
2022-12-09T19:04:27.465Z,1.42
2022-12-09T19:06:55.345Z,1.00
2022-12-09T19:09:23.246Z,1.20
2022-12-09T19:11:50.555Z,1.63
2022-12-09T19:14:17.827Z,1.20
2022-12-09T19:16:44.504Z,1.40
2022-12-09T19:19:13.031Z,1.67
2022-12-09T19:21:39.741Z,1.00
2022-12-09T19:24:06.980Z,1.20
2022-12-09T19:26:34.497Z,4.22
2022-12-09T19:29:02.042Z,2.08
2022-12-09T19:31:32.409Z,1.25
2022-12-09T19:34:01.098Z,2.97
2022-12-09T19:36:28.606Z,1.70
2022-12-09T19:38:55.447Z,1.38
2022-12-09T19:41:21.925Z,1.67
2022-12-09T19:43:48.481Z,1.60
2022-12-09T19:46:15.692Z,2.03
2022-12-09T19:48:44.322Z,1.90
2022-12-09T19:51:11.905Z,2.00
2022-12-09T19:53:38.910Z,2.58
2022-12-09T19:56:06.784Z,2.40
2022-12-09T19:58:35.579Z,1.98
2022-12-09T20:01:16.332Z,3.03
2022-12-09T20:03:43.787Z,2.15
2022-12-09T20:06:11.703Z,3.30
2022-12-09T20:08:38.434Z,2.55
2022-12-09T20:11:05.793Z,3.30
2022-12-09T20:13:32.567Z,4.03
2022-12-09T20:16:02.849Z,3.17
2022-12-09T20:18:29.311Z,3.42
2022-12-09T20:20:55.794Z,3.50
2022-12-09T20:23:22.250Z,3.78
2022-12-09T20:25:48.799Z,3.25
2022-12-09T20:28:15.250Z,2.55
2022-12-09T20:30:41.710Z,2.63
2022-12-09T20:33:08.849Z,2.08
2022-12-09T20:35:36.018Z,2.05
2022-12-09T20:38:02.747Z,1.85
2022-12-09T20:40:29.250Z,2.10
2022-12-09T20:42:56.855Z,2.20
2022-12-09T20:45:23.359Z,1.77
2022-12-09T20:47:50.042Z,1.40
2022-12-09T20:50:16.516Z,1.60
2022-12-09T20:52:43.007Z,1.63
2022-12-09T20:55:09.529Z,1.85
2022-12-09T20:57:36.199Z,1.85
2022-12-09T21:00:03.082Z,2.25
2022-12-09T21:02:29.602Z,2.38
2022-12-09T21:04:56.110Z,1.95
2022-12-09T21:07:22.650Z,2.40
2022-12-09T21:09:49.473Z,2.25
2022-12-09T21:12:15.964Z,4.43
2022-12-09T21:14:42.425Z,3.28
2022-12-09T21:17:08.946Z,2.03
2022-12-09T21:19:35.619Z,2.42
2022-12-09T21:22:02.477Z,2.33
2022-12-09T21:24:29.030Z,1.63
2022-12-09T21:26:57.218Z,1.70
2022-12-09T21:29:29.836Z,1.67
2022-12-09T21:31:58.370Z,2.08
2022-12-09T21:34:25.367Z,1.17
2022-12-09T21:36:52.518Z,1.55
2022-12-09T21:39:19.512Z,1.30
2022-12-09T21:41:46.093Z,1.67
2022-12-09T21:44:17.402Z,1.77
2022-12-09T21:46:44.414Z,1.73
2022-12-09T21:49:11.781Z,1.42
2022-12-09T21:51:38.425Z,1.50
2022-12-09T21:54:05.139Z,1.60
2022-12-09T21:56:33.190Z,1.63
2022-12-09T21:59:00.024Z,1.27
2022-12-09T22:01:28.362Z,1.25
2022-12-09T22:03:55.719Z,1.65
2022-12-09T22:06:26.647Z,1.63
2022-12-09T22:08:53.429Z,1.00
2022-12-09T22:11:24.369Z,0.90
2022-12-09T22:13:51.537Z,0.80
2022-12-09T22:16:29.084Z,0.80
2022-12-09T22:18:56.322Z,0.90
2022-12-09T22:21:25.288Z,0.80
2022-12-09T22:23:53.698Z,1.75
2022-12-09T22:26:20.957Z,2.03
2022-12-09T22:28:47.451Z,1.38
2022-12-09T22:31:15.527Z,1.63
2022-12-09T22:33:42.434Z,1.90
2022-12-09T22:36:10.024Z,1.80
2022-12-09T22:38:37.323Z,1.70
2022-12-09T22:41:08.292Z,1.50
2022-12-09T22:43:38.065Z,1.75
2022-12-09T22:46:05.821Z,1.33
2022-12-09T22:48:48.580Z,1.10
2022-12-09T22:51:16.747Z,0.70
2022-12-09T22:53:43.648Z,0.65
2022-12-09T22:56:11.588Z,0.75
2022-12-09T22:58:38.195Z,0.68
2022-12-09T23:01:12.103Z,0.40
2022-12-09T23:03:39.126Z,0.50
2022-12-09T23:06:06.230Z,0.60
2022-12-09T23:08:32.916Z,0.50
2022-12-09T23:11:04.545Z,0.40
2022-12-09T23:13:33.010Z,0.57
2022-12-09T23:16:04.222Z,0.60
2022-12-09T23:18:34.138Z,0.73
2022-12-09T23:21:09.113Z,0.80
2022-12-09T23:23:36.209Z,1.98
2022-12-09T23:26:05.003Z,1.92
2022-12-09T23:28:32.564Z,1.13
2022-12-09T23:31:01.679Z,1.60
2022-12-09T23:33:30.340Z,0.70
2022-12-09T23:35:56.955Z,0.90
2022-12-09T23:38:23.478Z,1.00
2022-12-09T23:40:53.706Z,1.42
2022-12-09T23:43:20.963Z,0.70
2022-12-09T23:45:47.819Z,0.70
2022-12-09T23:48:14.905Z,1.40
2022-12-09T23:50:41.438Z,2.13
2022-12-09T23:53:07.938Z,2.10
2022-12-09T23:55:34.518Z,2.17
2022-12-09T23:58:01.238Z,1.33
